Time;durP1;ratioP1;P1;durP2;ratioP2;P2;SDS_P1;SDS_P2;PMS_P1;PMS_P2;Temp;Humidity;BMP_temperature;BMP_pressure;BME280_temperature;BME280_humidity;BME280_pressure;Samples;Min_cycle;Max_cycle;Signal;HPM_P1;HPM_P2
2022/10/11 00:00:46;;;;;;;11.55;7.22;;;;;;;5.44;68.00;100770.44;5105353;27;20187;-81
2022/10/11 00:03:24;;;;;;;13.07;7.15;;;;;;;5.38;67.85;100757.34;5081028;27;20156;-80
2022/10/11 00:06:04;;;;;;;10.27;6.40;;;;;;;5.33;68.31;100734.00;5057877;28;20410;-81
2022/10/11 00:08:41;;;;;;;13.43;7.05;;;;;;;5.51;67.86;100769.78;5048480;28;20419;-80
2022/10/11 00:11:18;;;;;;;9.57;6.45;;;;;;;5.50;68.61;100778.34;5042205;28;20419;-81
2022/10/11 00:13:54;;;;;;;10.80;6.47;;;;;;;5.35;68.30;100741.78;5079683;27;20405;-80
2022/10/11 00:16:31;;;;;;;10.60;7.03;;;;;;;5.17;68.66;100716.34;5040748;28;20424;-80
2022/10/11 00:19:07;;;;;;;8.55;6.40;;;;;;;4.97;68.73;100685.69;5121110;27;20135;-80
2022/10/11 00:21:44;;;;;;;9.85;6.70;;;;;;;5.33;68.65;100746.91;5079830;27;20152;-80
2022/10/11 00:24:22;;;;;;;10.70;7.32;;;;;;;5.40;68.90;100755.69;5039766;28;20412;-81
2022/10/11 00:27:00;;;;;;;10.60;6.78;;;;;;;5.29;68.93;100737.31;5039699;28;20415;-79
2022/10/11 00:29:37;;;;;;;11.52;6.80;;;;;;;5.41;69.36;100753.13;5040288;28;20594;-79
2022/10/11 00:32:16;;;;;;;13.77;7.88;;;;;;;5.35;68.36;100758.16;5056249;28;20400;-80
2022/10/11 00:34:55;;;;;;;11.88;6.93;;;;;;;5.22;68.15;100745.72;5037159;28;20420;-82
2022/10/11 00:37:37;;;;;;;9.30;6.82;;;;;;;5.21;68.94;100749.13;5120289;27;20403;-79
2022/10/11 00:40:19;;;;;;;8.27;5.82;;;;;;;5.19;68.88;100730.13;5040459;28;20408;-80
2022/10/11 00:42:56;;;;;;;11.38;7.13;;;;;;;5.23;68.95;100740.63;5020825;28;20431;-79
2022/10/11 00:45:35;;;;;;;11.10;6.32;;;;;;;5.26;69.46;100739.81;5040497;28;20413;-80
2022/10/11 00:48:21;;;;;;;10.48;6.63;;;;;;;5.23;68.78;100742.31;5079580;27;20130;-80
2022/10/11 00:51:01;;;;;;;11.48;7.30;;;;;;;5.15;69.01;100728.34;5044086;28;20410;-81
2022/10/11 00:53:40;;;;;;;10.82;7.13;;;;;;;5.15;69.17;100736.94;5037603;28;20407;-80
2022/10/11 00:56:30;;;;;;;11.55;7.38;;;;;;;5.18;68.80;100749.06;5038063;28;20411;-81
2022/10/11 00:59:13;;;;;;;13.70;6.90;;;;;;;5.17;68.77;100747.31;5042236;28;20412;-79
2022/10/11 01:01:51;;;;;;;11.50;7.47;;;;;;;5.00;68.46;100731.34;5081165;27;20406;-83
2022/10/11 01:04:29;;;;;;;12.43;7.70;;;;;;;4.89;68.85;100710.41;5039582;28;20430;-81
2022/10/11 01:07:09;;;;;;;12.00;6.57;;;;;;;5.04;69.73;100739.22;5125272;27;20425;-82
2022/10/11 01:09:49;;;;;;;11.20;6.72;;;;;;;5.02;69.52;100732.28;5048502;28;20435;-80
2022/10/11 01:12:30;;;;;;;9.90;5.90;;;;;;;5.07;69.79;100738.44;5071599;27;20669;-78
2022/10/11 01:15:17;;;;;;;13.48;6.22;;;;;;;5.06;69.47;100737.56;5040281;28;20408;-81
2022/10/11 01:17:57;;;;;;;7.50;5.00;;;;;;;5.08;69.31;100733.31;5063691;28;20404;-80
2022/10/11 01:20:58;;;;;;;9.10;4.90;;;;;;;4.91;68.97;100716.47;5069267;27;1486370;-80
2022/10/11 01:23:44;;;;;;;9.13;5.15;;;;;;;4.97;69.14;100726.94;5058215;28;20413;-79
2022/10/11 01:26:33;;;;;;;7.72;5.07;;;;;;;4.91;69.65;100716.47;5042701;27;20918;-80
2022/10/11 01:29:17;;;;;;;8.27;4.55;;;;;;;4.98;69.00;100731.28;5111484;27;20396;-78
2022/10/11 01:31:55;;;;;;;9.65;6.32;;;;;;;4.90;69.54;100725.91;5110305;27;20404;-78
2022/10/11 01:35:18;;;;;;;8.63;4.38;;;;;;;4.92;70.00;100726.81;5066792;28;20750;-80
2022/10/11 01:38:04;;;;;;;7.45;4.82;;;;;;;4.79;69.11;100735.06;5105603;27;20403;-78
2022/10/11 01:41:18;;;;;;;9.45;4.93;;;;;;;4.74;70.03;100723.72;5063717;28;20421;-79
2022/10/11 01:44:01;;;;;;;10.02;4.47;;;;;;;4.59;70.15;100700.91;5054082;28;20420;-79
2022/10/11 01:46:39;;;;;;;9.80;5.72;;;;;;;4.78;69.86;100738.47;5088006;27;20413;-80
2022/10/11 01:49:17;;;;;;;11.15;5.50;;;;;;;4.60;69.50;100731.94;5026003;28;20413;-78
2022/10/11 01:52:00;;;;;;;11.52;4.78;;;;;;;4.45;70.25;100721.13;5040422;28;20427;-81
2022/10/11 01:55:09;;;;;;;8.85;4.80;;;;;;;4.56;70.01;100731.75;5100414;27;20424;-80
2022/10/11 01:58:02;;;;;;;8.70;5.00;;;;;;;4.41;69.93;100706.41;5038849;28;20412;-80
2022/10/11 02:00:59;;;;;;;7.05;4.85;;;;;;;4.46;68.86;100725.44;5038963;28;20426;-80
2022/10/11 02:03:42;;;;;;;8.93;5.53;;;;;;;4.50;70.16;100743.66;5098582;27;21220;-79
2022/10/11 02:06:42;;;;;;;10.13;5.53;;;;;;;4.42;69.53;100742.53;5092491;27;20929;-78
2022/10/11 02:09:40;;;;;;;6.88;5.05;;;;;;;4.49;70.19;100743.59;5060355;28;20399;-80
2022/10/11 02:12:35;;;;;;;10.75;5.35;;;;;;;4.43;70.31;100735.66;5039504;27;20416;-79
2022/10/11 02:15:15;;;;;;;8.73;5.00;;;;;;;4.50;70.72;100741.09;5142600;27;20400;-80
2022/10/11 02:17:57;;;;;;;9.20;5.80;;;;;;;4.47;70.56;100737.50;5043139;28;20404;-81
2022/10/11 02:20:39;;;;;;;10.05;5.32;;;;;;;4.57;71.18;100739.56;5082632;27;20413;-79
2022/10/11 02:23:28;;;;;;;8.02;5.00;;;;;;;4.59;71.03;100748.22;5043428;28;20411;-82
2022/10/11 02:26:08;;;;;;;9.32;5.45;;;;;;;4.41;70.75;100725.31;5082340;27;20406;-81
2022/10/11 02:28:49;;;;;;;12.50;5.63;;;;;;;4.45;70.55;100728.84;5043418;28;20412;-79
2022/10/11 02:31:30;;;;;;;9.65;5.45;;;;;;;4.52;70.85;100746.28;5080409;27;20844;-79
2022/10/11 02:34:22;;;;;;;7.90;5.50;;;;;;;4.55;70.56;100740.31;5040142;28;20416;-80
2022/10/11 02:37:14;;;;;;;11.20;6.15;;;;;;;4.36;70.63;100708.81;5040475;27;20411;-80
2022/10/11 02:40:15;;;;;;;13.27;5.80;;;;;;;4.46;70.67;100741.81;5022187;28;20436;-80
2022/10/11 02:42:58;;;;;;;10.20;5.50;;;;;;;4.40;71.47;100735.59;5037554;28;20973;-80
2022/10/11 02:45:42;;;;;;;8.98;5.68;;;;;;;4.48;71.37;100749.56;5065062;28;20409;-79
2022/10/11 02:48:22;;;;;;;9.20;5.70;;;;;;;4.22;70.15;100709.28;5043742;28;20422;-80
2022/10/11 02:51:02;;;;;;;11.38;6.50;;;;;;;4.38;71.23;100740.69;5019821;28;20816;-81
2022/10/11 02:53:40;;;;;;;9.30;5.43;;;;;;;4.35;70.85;100725.13;5045197;28;20756;-80
2022/10/11 02:56:18;;;;;;;7.97;5.47;;;;;;;4.50;71.34;100743.66;5057759;28;20781;-82
2022/10/11 02:58:56;;;;;;;12.18;5.45;;;;;;;4.24;71.25;100695.56;5098426;27;20416;-80
2022/10/11 03:01:33;;;;;;;8.43;5.93;;;;;;;4.32;70.95;100713.03;5103611;27;20419;-81
2022/10/11 03:04:11;;;;;;;10.20;5.35;;;;;;;4.48;70.94;100747.00;5042343;28;20408;-80
2022/10/11 03:06:49;;;;;;;9.05;5.55;;;;;;;4.45;70.88;100749.47;5040518;28;20403;-77
2022/10/11 03:09:27;;;;;;;9.00;5.40;;;;;;;4.40;71.52;100740.75;5042483;28;20416;-80
2022/10/11 03:12:06;;;;;;;7.90;5.57;;;;;;;4.28;71.00;100720.63;5021627;28;20410;-81
2022/10/11 03:14:56;;;;;;;11.48;5.65;;;;;;;4.40;70.47;100748.47;5042504;28;20403;-79
2022/10/11 03:17:40;;;;;;;9.50;5.88;;;;;;;4.36;70.66;100747.47;5024867;28;20405;-77
2022/10/11 03:20:22;;;;;;;11.68;6.38;;;;;;;4.33;70.34;100739.66;5082994;27;20717;-81
2022/10/11 03:23:01;;;;;;;11.20;6.07;;;;;;;4.12;71.41;100714.09;5090579;27;20440;-80
2022/10/11 03:25:38;;;;;;;11.25;5.65;;;;;;;4.30;71.21;100739.59;5046799;28;20412;-79
2022/10/11 03:28:16;;;;;;;12.43;6.03;;;;;;;4.13;71.54;100716.72;5105675;27;20414;-79
2022/10/11 03:30:55;;;;;;;9.18;6.18;;;;;;;4.15;71.82;100715.06;5070952;28;21185;-80
2022/10/11 03:33:35;;;;;;;12.25;5.10;;;;;;;4.29;71.83;100735.25;5065030;28;20421;-82
2022/10/11 03:36:13;;;;;;;8.80;5.30;;;;;;;4.18;71.21;100720.31;5044372;28;20140;-82
2022/10/11 03:38:52;;;;;;;9.82;5.72;;;;;;;4.29;71.87;100738.69;5103558;27;20412;-82
2022/10/11 03:41:33;;;;;;;10.15;5.07;;;;;;;4.25;71.24;100729.09;5088846;27;1548413;-79
2022/10/11 03:44:11;;;;;;;9.18;5.65;;;;;;;4.30;71.53;100749.88;5060761;28;20404;-82
2022/10/11 03:46:49;;;;;;;9.10;5.70;;;;;;;4.05;71.67;100693.28;5078868;27;20130;-83
2022/10/11 03:49:36;;;;;;;16.33;5.88;;;;;;;3.94;71.98;100683.47;5094544;27;20928;-82
2022/10/11 03:52:29;;;;;;;8.73;5.22;;;;;;;3.99;72.01;100692.22;5090516;27;20412;-80
2022/10/11 03:55:06;;;;;;;12.30;5.75;;;;;;;4.29;71.44;100735.25;5068889;28;20143;-79
2022/10/11 03:57:44;;;;;;;8.82;5.70;;;;;;;4.14;71.59;100708.16;5117457;27;20402;-79
2022/10/11 04:00:22;;;;;;;8.07;5.18;;;;;;;4.36;71.38;100730.34;5055184;28;20407;-81
2022/10/11 04:02:59;;;;;;;11.20;6.00;;;;;;;4.26;70.93;100719.69;5092114;27;1508696;-79
2022/10/11 04:05:37;;;;;;;8.82;5.60;;;;;;;4.32;71.16;100705.28;5052339;28;20407;-80
2022/10/11 04:08:35;;;;;;;11.43;5.45;;;;;;;4.36;71.95;100698.53;5046719;28;20405;-81
2022/10/11 04:11:13;;;;;;;16.63;5.75;;;;;;;4.58;70.92;100723.25;5123249;27;20184;-81
2022/10/11 04:13:51;;;;;;;12.40;4.90;;;;;;;4.67;71.93;100707.19;5120965;27;20833;-80
2022/10/11 04:16:30;;;;;;;12.98;5.80;;;;;;;5.07;71.66;100720.38;5061296;27;20189;-80
2022/10/11 04:19:11;;;;;;;12.38;5.13;;;;;;;5.09;71.85;100660.25;5080116;27;20460;-81
2022/10/11 04:21:49;;;;;;;11.20;5.07;;;;;;;5.82;71.38;100708.59;5085125;27;20401;-82
2022/10/11 04:24:27;;;;;;;11.10;5.13;;;;;;;6.24;71.08;100707.03;5040820;27;20414;-81
2022/10/11 04:27:05;;;;;;;8.63;4.72;;;;;;;6.58;70.98;100681.94;5082966;27;20410;-80
2022/10/11 04:29:43;;;;;;;13.55;4.50;;;;;;;7.23;70.28;100708.28;5142877;27;20425;-82
2022/10/11 04:32:21;;;;;;;8.35;4.65;;;;;;;7.49;69.77;100677.66;5058933;28;20406;-82
2022/10/11 04:35:00;;;;;;;11.23;4.28;;;;;;;7.67;69.15;100647.75;5080201;27;20916;-79
2022/10/11 04:37:37;;;;;;;10.48;4.28;;;;;;;8.07;68.74;100692.44;5057775;28;20870;-81
2022/10/11 04:40:14;;;;;;;7.10;4.53;;;;;;;8.44;67.84;100686.91;5121589;27;21154;-80
2022/10/11 04:42:52;;;;;;;10.85;5.63;;;;;;;8.78;66.67;100700.41;5023293;28;20412;-81
2022/10/11 04:45:31;;;;;;;7.43;4.35;;;;;;;8.85;66.66;100694.41;5039368;28;20410;-79
2022/10/11 04:48:09;;;;;;;7.22;4.72;;;;;;;9.07;66.02;100693.81;5039752;28;20415;-79
2022/10/11 04:50:47;;;;;;;6.90;4.65;;;;;;;9.31;65.10;100682.81;5026677;28;20798;-82
2022/10/11 04:53:27;;;;;;;8.60;4.95;;;;;;;9.64;64.53;100686.63;5041619;27;20413;-81
2022/10/11 04:56:09;;;;;;;7.22;4.47;;;;;;;10.20;64.30;100685.31;5042747;28;20408;-81
2022/10/11 04:58:48;;;;;;;6.95;4.10;;;;;;;11.20;63.23;100696.22;5083301;27;20489;-83
2022/10/11 05:01:25;;;;;;;10.23;4.68;;;;;;;11.44;60.22;100667.63;5043720;28;20408;-82
2022/10/11 05:04:01;;;;;;;7.25;4.07;;;;;;;12.59;61.75;100683.22;5146140;27;20400;-81
2022/10/11 05:06:40;;;;;;;9.75;4.60;;;;;;;13.73;58.79;100683.50;5020370;28;20420;-81
2022/10/11 05:09:18;;;;;;;7.82;4.72;;;;;;;14.86;59.23;100676.28;5042621;28;20417;-81
2022/10/11 05:11:56;;;;;;;9.60;4.82;;;;;;;16.04;56.27;100661.41;5042216;28;20415;-79
2022/10/11 05:14:37;;;;;;;7.88;4.97;;;;;;;16.89;53.54;100675.53;5083447;27;20889;-83
2022/10/11 05:17:15;;;;;;;10.35;4.95;;;;;;;17.57;51.01;100641.56;5056142;28;20411;-80
2022/10/11 05:19:52;;;;;;;7.25;4.82;;;;;;;18.29;49.40;100675.75;5084800;27;20899;-81
2022/10/11 05:22:40;;;;;;;9.35;4.63;;;;;;;18.79;46.71;100671.75;5049854;27;20412;-82
2022/10/11 05:25:22;;;;;;;9.93;5.10;;;;;;;19.38;46.21;100633.03;5119375;27;20124;-81
2022/10/11 05:28:00;;;;;;;12.00;5.00;;;;;;;20.51;43.92;100644.19;5039815;28;20422;-80
2022/10/11 05:30:40;;;;;;;8.63;4.88;;;;;;;21.40;42.44;100601.97;5098170;27;20897;-81
2022/10/11 05:33:18;;;;;;;5.60;4.85;;;;;;;22.53;40.51;100631.59;5081110;27;20368;-82
2022/10/11 05:35:56;;;;;;;7.80;4.50;;;;;;;23.46;38.00;100606.84;5103902;27;20129;-80
2022/10/11 05:38:36;;;;;;;5.20;4.10;;;;;;;24.49;35.27;100631.69;5121167;27;20178;-84
2022/10/11 05:41:15;;;;;;;7.00;4.97;;;;;;;25.40;33.87;100627.56;5059018;28;20901;-83
2022/10/11 05:43:52;;;;;;;6.35;4.40;;;;;;;26.05;32.94;100623.78;5040021;28;20411;-81
2022/10/11 05:46:29;;;;;;;12.50;5.07;;;;;;;26.72;31.01;100619.66;5079817;27;20141;-81
2022/10/11 05:49:11;;;;;;;8.20;4.60;;;;;;;27.40;29.92;100609.09;5039780;28;20413;-82
2022/10/11 05:52:02;;;;;;;7.47;4.85;;;;;;;28.25;28.56;100617.56;5079952;27;20407;-81
2022/10/11 05:54:39;;;;;;;6.20;4.47;;;;;;;28.42;27.65;100607.47;5040409;28;20144;-81
2022/10/11 05:57:17;;;;;;;7.28;5.13;;;;;;;28.31;27.61;100608.25;5043797;28;20442;-80
2022/10/11 05:59:54;;;;;;;7.60;4.53;;;;;;;28.86;26.63;100586.50;5078687;27;20402;-80
2022/10/11 06:02:32;;;;;;;5.32;4.57;;;;;;;29.85;25.83;100594.31;5020368;28;20507;-80
2022/10/11 06:05:10;;;;;;;10.38;4.80;;;;;;;30.62;24.51;100590.09;5058335;28;20413;-80
2022/10/11 06:07:48;;;;;;;8.27;4.68;;;;;;;31.24;24.22;100566.22;5044479;28;20417;-81
2022/10/11 06:10:25;;;;;;;8.10;4.68;;;;;;;31.99;23.19;100575.09;5037671;28;20139;-78
2022/10/11 06:13:05;;;;;;;6.72;4.43;;;;;;;32.20;22.71;100579.56;5043512;28;20429;-83
2022/10/11 06:16:10;;;;;;;9.40;4.40;;;;;;;32.59;21.75;100582.38;5123316;27;20443;-82
2022/10/11 06:19:04;;;;;;;6.18;4.13;;;;;;;33.17;21.13;100577.22;5089544;27;20994;-81
2022/10/11 06:22:11;;;;;;;7.63;4.50;;;;;;;33.81;20.07;100572.19;5178810;27;20882;-82
2022/10/11 06:25:06;;;;;;;6.18;4.18;;;;;;;34.28;19.21;100562.34;5087880;27;20427;-82
2022/10/11 06:28:21;;;;;;;6.88;4.20;;;;;;;34.22;19.20;100499.00;5127374;27;21063;-81
2022/10/11 06:31:12;;;;;;;5.90;4.43;;;;;;;35.03;18.67;100534.31;5080472;27;20988;-80
2022/10/11 06:34:11;;;;;;;4.97;3.85;;;;;;;36.09;17.49;100586.59;5076824;27;20940;-81
2022/10/11 06:37:29;;;;;;;5.60;4.28;;;;;;;36.16;17.45;100463.97;5100229;27;20421;-81
2022/10/11 06:40:25;;;;;;;6.05;4.07;;;;;;;37.03;16.95;100551.34;5130038;27;20575;-82
2022/10/11 06:43:31;;;;;;;5.47;4.55;;;;;;;37.34;15.98;100564.22;5128824;27;20414;-81
2022/10/11 06:46:35;;;;;;;5.13;4.07;;;;;;;37.58;15.93;100552.50;5117004;27;20457;-81
2022/10/11 06:49:33;;;;;;;5.75;3.92;;;;;;;37.50;15.90;100542.50;5129342;27;20418;-82
2022/10/11 06:52:39;;;;;;;4.60;3.22;;;;;;;37.40;15.78;100452.31;5130325;27;20225;-82
2022/10/11 06:55:41;;;;;;;3.63;3.15;;;;;;;37.13;15.63;100446.25;5171288;27;20565;-80
2022/10/11 06:58:23;;;;;;;4.57;2.80;;;;;;;37.55;15.48;100457.03;4438109;27;19029112;-82
2022/10/11 07:01:27;;;;;;;3.35;2.30;;;;;;;38.56;15.26;100527.84;5113850;27;20143;-82
2022/10/11 07:04:27;;;;;;;4.68;2.30;;;;;;;38.16;14.54;100497.16;4549107;27;15309089;-82
2022/10/11 07:07:21;;;;;;;2.50;1.98;;;;;;;38.62;15.05;100565.19;5078597;27;20425;-82
2022/10/11 07:10:18;;;;;;;6.72;2.88;;;;;;;38.54;13.90;100557.94;5172255;27;20553;-81
2022/10/11 07:13:12;;;;;;;3.97;1.90;;;;;;;38.63;13.84;100545.13;5118517;27;20362;-82
2022/10/11 07:16:18;;;;;;;4.18;2.47;;;;;;;39.02;13.51;100525.13;5070943;27;20371;-82
2022/10/11 07:19:28;;;;;;;3.25;2.10;;;;;;;39.74;13.02;100509.28;5120240;27;20424;-81
2022/10/11 07:22:35;;;;;;;1.83;1.63;;;;;;;39.58;12.52;100553.88;4306578;27;24248262;-81
2022/10/11 07:25:41;;;;;;;2.88;2.38;;;;;;;38.63;13.01;100514.38;5069710;27;20485;-80
2022/10/11 07:28:46;;;;;;;3.45;2.78;;;;;;;38.00;13.30;100552.41;5091327;27;20742;-80
2022/10/11 07:31:51;;;;;;;2.95;1.67;;;;;;;38.73;12.74;100553.03;5105450;27;20434;-81
2022/10/11 07:34:48;;;;;;;3.03;1.88;;;;;;;37.76;12.70;100426.56;5106034;27;20921;-81
2022/10/11 07:37:40;;;;;;;3.00;2.05;;;;;;;38.53;13.10;100541.78;5103712;27;20426;-80
2022/10/11 07:40:43;;;;;;;2.95;1.80;;;;;;;39.28;12.65;100552.97;5099014;27;20560;-82
2022/10/11 07:43:38;;;;;;;4.15;3.45;;;;;;;38.54;12.65;100543.47;5082713;27;20424;-82
2022/10/11 07:46:32;;;;;;;3.60;2.88;;;;;;;38.04;12.94;100543.75;5175033;27;20424;-82
2022/10/11 07:49:31;;;;;;;3.90;3.30;;;;;;;38.09;12.70;100541.31;5178844;27;20407;-80
2022/10/11 07:52:54;;;;;;;;;;;;;;;;;;;;;
2022/10/11 07:56:41;;;;;;;3.95;2.50;;;;;;;38.22;12.58;100513.59;5141774;27;20359;-79
2022/10/11 07:59:47;;;;;;;2.60;2.03;;;;;;;37.74;12.83;100463.91;5123243;27;20450;-79
2022/10/11 08:02:41;;;;;;;4.25;2.90;;;;;;;38.50;12.34;100529.41;5113790;27;20449;-83
2022/10/11 08:05:51;;;;;;;4.22;2.88;;;;;;;38.48;12.24;100508.91;5045650;28;20439;-82
2022/10/11 08:08:46;;;;;;;6.55;2.65;;;;;;;38.98;12.23;100507.50;5182413;27;20561;-81
2022/10/11 08:11:38;;;;;;;4.47;2.85;;;;;;;39.55;12.11;100520.72;5091768;27;20440;-82
2022/10/11 08:14:41;;;;;;;2.47;2.15;;;;;;;39.77;11.93;100513.53;5190705;27;20451;-80
2022/10/11 08:17:37;;;;;;;5.00;3.75;;;;;;;39.51;11.59;100509.38;5187916;27;20541;-80
2022/10/11 08:20:45;;;;;;;1.88;1.67;;;;;;;39.57;11.34;100505.06;5106427;27;20830;-80
2022/10/11 08:23:43;;;;;;;4.72;1.88;;;;;;;39.24;11.26;100519.00;5102802;27;20427;-80
2022/10/11 08:26:41;;;;;;;3.03;1.90;;;;;;;39.35;11.85;100498.69;5090324;27;20503;-80
2022/10/11 08:29:34;;;;;;;2.40;1.77;;;;;;;38.87;11.62;100401.91;4599440;27;15188246;-80
2022/10/11 08:32:33;;;;;;;5.05;2.20;;;;;;;39.59;11.28;100482.09;5187560;27;20414;-80
2022/10/11 08:35:29;;;;;;;6.18;3.95;;;;;;;39.77;11.17;100489.03;5111407;27;20422;-81
2022/10/11 08:38:28;;;;;;;6.45;4.53;;;;;;;40.45;10.74;100427.97;5099389;27;20457;-79
2022/10/11 08:41:29;;;;;;;5.57;3.58;;;;;;;40.58;10.82;100495.41;5189238;27;20423;-79
2022/10/11 08:44:34;;;;;;;3.83;2.60;;;;;;;40.74;10.70;100488.88;5150485;27;20039;-80
2022/10/11 08:47:26;;;;;;;18.33;2.45;;;;;;;40.68;11.22;100476.88;5145956;27;20051;-80
2022/10/11 08:49:54;;;;;;;2.92;1.77;;;;;;;41.79;10.98;100488.16;5169448;27;20039;-81
2022/10/11 08:53:09;;;;;;;3.10;1.50;;;;;;;42.77;10.09;100489.66;5173516;27;20034;-81
2022/10/11 08:55:48;;;;;;;6.38;1.83;;;;;;;43.09;10.08;100448.84;5155961;27;20050;-81
2022/10/11 08:58:21;;;;;;;3.30;1.88;;;;;;;42.87;9.73;100478.34;5154151;27;20049;-81
2022/10/11 09:01:01;;;;;;;2.45;1.70;;;;;;;41.90;9.78;100418.44;5154136;27;20042;-81
2022/10/11 09:03:43;;;;;;;2.00;1.80;;;;;;;42.43;9.95;100458.75;5168998;27;20133;-83
2022/10/11 09:06:42;;;;;;;1.90;1.70;;;;;;;43.14;9.21;100470.97;5159568;27;20089;-81
2022/10/11 09:09:49;;;;;;;2.88;1.80;;;;;;;43.54;9.11;100464.53;5165124;27;20076;-82
2022/10/11 09:13:06;;;;;;;6.85;2.33;;;;;;;44.08;9.40;100467.91;5149093;27;20110;-81
2022/10/11 09:15:46;;;;;;;4.55;2.15;;;;;;;44.56;8.75;100456.66;5161439;27;20039;-81
2022/10/11 09:18:49;;;;;;;3.45;1.90;;;;;;;44.61;8.41;100452.19;5177395;27;20043;-80
2022/10/11 09:21:33;;;;;;;2.88;1.90;;;;;;;43.91;8.55;100414.69;5156912;27;20473;-81
2022/10/11 09:24:30;;;;;;;2.45;1.80;;;;;;;43.79;8.60;100445.53;5151284;27;20059;-79
2022/10/11 09:27:22;;;;;;;2.97;1.70;;;;;;;44.05;8.57;100423.69;5138199;27;20050;-80
2022/10/11 09:30:17;;;;;;;3.33;1.70;;;;;;;44.31;8.51;100441.84;5171254;27;20064;-82
2022/10/11 09:33:10;;;;;;;3.17;2.28;;;;;;;44.28;8.18;100395.69;5151074;27;20073;-81
2022/10/11 09:35:51;;;;;;;5.65;1.95;;;;;;;44.67;8.29;100421.13;5137392;27;20039;-81
2022/10/11 09:38:38;;;;;;;2.78;2.08;;;;;;;44.73;7.75;100430.34;5133138;27;20046;-83
2022/10/11 09:41:21;;;;;;;3.88;1.90;;;;;;;44.34;8.08;100408.50;5123983;27;20434;-80
2022/10/11 09:43:50;;;;;;;4.13;2.00;;;;;;;43.91;7.91;100428.38;5114092;27;20038;-82
2022/10/11 09:46:43;;;;;;;2.50;1.70;;;;;;;42.73;7.86;100418.16;5127681;27;20401;-81
2022/10/11 09:49:37;;;;;;;;;;;;;;;41.24;8.69;100421.50;5102925;27;20198;-83
2022/10/11 09:52:33;;;;;;;2.38;1.90;;;;;;;40.33;9.32;100379.47;5103576;27;20308;-82
2022/10/11 09:55:01;;;;;;;1.90;1.70;;;;;;;40.02;9.24;100333.47;5110235;27;20050;-81
2022/10/11 09:57:34;;;;;;;5.65;1.88;;;;;;;38.34;9.64;100359.16;5090561;27;20050;-80
2022/10/11 10:00:19;;;;;;;2.15;1.50;;;;;;;36.24;10.10;100403.56;5113052;27;20405;-80
2022/10/11 10:06:31;;;;;;;8.10;2.33;;;;;;;30.15;13.27;100351.44;5086626;27;20595;-81
2022/10/11 10:09:31;;;;;;;3.38;2.50;;;;;;;28.85;13.92;100406.25;5112489;27;20050;-81
2022/10/11 10:12:10;;;;;;;5.60;2.60;;;;;;;27.44;15.31;100418.22;5038434;27;20050;-81
2022/10/11 10:14:40;;;;;;;4.05;1.90;;;;;;;25.60;16.36;100407.13;5114858;27;20047;-81
2022/10/11 10:17:15;;;;;;;3.63;2.22;;;;;;;24.90;16.73;100428.09;5095970;27;20038;-81
2022/10/11 10:19:52;;;;;;;6.07;2.70;;;;;;;23.92;17.52;100406.13;5110807;27;20051;-80
2022/10/11 10:22:26;;;;;;;4.43;1.80;;;;;;;23.38;18.22;100393.97;5126647;27;20035;-81
2022/10/11 10:24:54;;;;;;;5.70;1.85;;;;;;;22.99;18.63;100400.38;5107948;27;20079;-80
2022/10/11 10:27:21;;;;;;;4.13;1.50;;;;;;;22.69;19.24;100432.81;5093878;27;20468;-81
2022/10/11 10:30:15;;;;;;;3.75;1.60;;;;;;;22.22;19.35;100435.03;5134953;27;20035;-82
2022/10/11 10:33:39;;;;;;;3.88;1.73;;;;;;;21.78;19.93;100433.53;5112003;27;20042;-82
2022/10/11 10:36:38;;;;;;;5.22;1.42;;;;;;;19.93;20.80;100242.16;5111881;27;20126;-82
2022/10/11 10:39:53;;;;;;;3.15;1.35;;;;;;;20.57;21.07;100430.69;5105131;27;20048;-82
2022/10/11 10:42:22;;;;;;;3.83;1.55;;;;;;;20.07;20.97;100399.22;5052982;27;20035;-80
2022/10/11 10:44:52;;;;;;;5.25;1.35;;;;;;;19.74;21.16;100395.16;5094610;27;20035;-80
2022/10/11 10:47:55;;;;;;;3.40;1.90;;;;;;;19.54;21.89;100423.13;5103689;27;20031;-81
2022/10/11 10:50:50;;;;;;;4.72;1.88;;;;;;;18.87;22.26;100366.53;5110263;27;20128;-81
2022/10/11 10:53:36;;;;;;;2.20;1.30;;;;;;;18.74;22.24;100413.56;5111297;27;20039;-80
2022/10/11 10:56:12;;;;;;;2.13;1.30;;;;;;;18.35;23.05;100396.34;5127109;27;20039;-82
2022/10/11 10:59:03;;;;;;;6.30;2.20;;;;;;;18.25;22.93;100415.97;5094810;27;20070;-81
2022/10/11 11:01:45;;;;;;;3.03;1.60;;;;;;;17.59;23.13;100347.72;5089128;27;20071;-82
2022/10/11 11:04:39;;;;;;;;;;;;;;;17.71;23.70;100421.06;5126686;27;20559;-81
2022/10/11 11:07:24;;;;;;;6.22;1.40;;;;;;;16.95;24.12;100338.06;5126739;27;19915;-82
2022/10/11 11:10:07;;;;;;;4.28;1.60;;;;;;;16.50;24.60;100321.69;5113729;27;20107;-81
2022/10/11 11:12:53;;;;;;;;;;;;;;;16.95;24.76;100409.94;5111196;27;20481;-82
2022/10/11 11:15:50;;;;;;;3.35;1.50;;;;;;;16.62;24.90;100375.69;5122281;27;19923;-80
2022/10/11 11:18:55;;;;;;;3.10;1.60;;;;;;;16.22;24.93;100353.03;5086254;27;20054;-81
2022/10/11 11:21:34;;;;;;;2.67;1.63;;;;;;;16.35;25.80;100399.09;5124964;27;20057;-81
2022/10/11 11:24:40;;;;;;;4.35;1.63;;;;;;;16.13;26.15;100395.22;5087108;27;20041;-83
2022/10/11 11:27:41;;;;;;;4.97;1.60;;;;;;;16.02;26.26;100396.34;5095845;27;20043;-82
2022/10/11 11:30:40;;;;;;;4.75;1.40;;;;;;;15.85;26.48;100398.44;5130880;27;20121;-81
2022/10/11 11:33:40;;;;;;;2.35;1.50;;;;;;;15.74;26.67;100401.28;5107699;27;20043;-81
2022/10/11 11:36:20;;;;;;;3.95;1.38;;;;;;;15.52;26.70;100365.00;5126646;27;20506;-80
2022/10/11 11:39:00;;;;;;;3.08;1.30;;;;;;;15.64;26.63;100396.22;5087240;27;20038;-81
2022/10/11 11:41:42;;;;;;;9.73;1.50;;;;;;;15.52;26.94;100392.06;5089054;27;20156;-80
2022/10/11 11:44:11;;;;;;;;;;;;;;;15.35;27.37;100389.78;5103492;27;20397;-83
2022/10/11 11:47:04;;;;;;;5.43;1.60;;;;;;;15.33;27.45;100388.09;5106867;27;19915;-82
2022/10/11 11:49:56;;;;;;;3.63;1.70;;;;;;;15.33;27.54;100388.09;5082065;27;20062;-82
2022/10/11 11:53:06;;;;;;;2.33;1.67;;;;;;;14.68;27.65;100297.53;5124245;27;20042;-80
2022/10/11 11:56:09;;;;;;;12.05;1.92;;;;;;;14.61;28.10;100300.25;5100002;27;20481;-82
2022/10/11 11:59:24;;;;;;;4.38;1.52;;;;;;;13.85;28.36;100196.00;5126687;27;20115;-81
2022/10/11 12:02:29;;;;;;;5.15;1.50;;;;;;;14.44;28.32;100318.91;5094225;27;20051;-82
2022/10/11 12:05:19;;;;;;;3.28;1.60;;;;;;;14.37;28.33;100314.66;5092251;27;20413;-82
2022/10/11 12:07:58;;;;;;;3.22;1.30;;;;;;;14.46;28.62;100345.91;5106771;27;20502;-82
2022/10/11 12:10:45;;;;;;;4.65;1.50;;;;;;;14.46;28.57;100366.84;5122822;27;20043;-79
2022/10/11 12:16:25;;;;;;;3.90;1.65;;;;;;;14.24;28.87;100362.81;5094655;27;20062;-81
2022/10/11 12:19:24;;;;;;;20.42;2.30;;;;;;;14.12;29.24;100349.06;5107707;27;20031;-83
2022/10/11 12:22:28;;;;;;;3.38;1.58;;;;;;;14.05;29.35;100349.16;5055937;27;20180;-82
2022/10/11 12:25:54;;;;;;;6.13;1.55;;;;;;;14.07;29.39;100363.94;5107095;27;20049;-80
2022/10/11 12:28:36;;;;;;;3.95;1.50;;;;;;;13.99;29.67;100357.97;5057099;27;21143;-81
2022/10/11 12:31:07;;;;;;;;;;;;;;;13.90;29.73;100350.25;5109152;28;20043;-82
2022/10/11 12:33:33;;;;;;;2.65;1.50;;;;;;;13.82;29.52;100347.75;5092990;27;19921;-79
2022/10/11 12:36:30;;;;;;;5.30;1.60;;;;;;;13.77;29.83;100355.66;5105412;28;20051;-80
2022/10/11 12:39:18;;;;;;;2.63;1.52;;;;;;;13.71;29.82;100350.50;5073695;28;20134;-83
2022/10/11 12:41:52;;;;;;;;;;;;;;;13.64;30.02;100348.84;5103359;28;20229;-80
2022/10/11 12:44:21;;;;;;;1.85;1.30;;;;;;;13.57;30.02;100347.19;5115706;28;20016;-81
2022/10/11 12:47:41;;;;;;;4.03;1.42;;;;;;;13.46;30.12;100345.56;5089698;28;20058;-81
2022/10/11 12:50:47;;;;;;;3.15;1.40;;;;;;;13.38;30.14;100340.41;5071186;28;20039;-80
2022/10/11 12:53:53;;;;;;;4.60;1.65;;;;;;;13.28;30.24;100340.53;5068215;28;20088;-83
2022/10/11 12:56:47;;;;;;;6.20;1.95;;;;;;;12.96;30.35;100314.72;5081321;28;20130;-82
2022/10/11 12:59:22;;;;;;;4.72;1.65;;;;;;;12.91;30.38;100319.13;5099606;28;20046;-80
2022/10/11 13:01:59;;;;;;;5.28;1.65;;;;;;;12.99;30.67;100339.09;5079286;28;20378;-81
2022/10/11 13:04:30;;;;;;;4.32;1.80;;;;;;;12.78;30.75;100317.53;5100817;28;20142;-80
2022/10/11 13:07:11;;;;;;;5.45;1.92;;;;;;;12.74;30.74;100308.00;5082898;28;20134;-82
2022/10/11 13:09:40;;;;;;;6.38;1.95;;;;;;;12.71;30.76;100308.91;5085499;28;20052;-81